Nicole Leigh Reinauer — WCZ5696 — position and weather

sailwx.info

Track history (hours):
 
Tides and Currents Weather Stations Pressure Air Temp Water Temp Dewpoint Dewpoint Depression Visibility Wind Speed Wind Dir Waves Ship Positions

Nicole Leigh Reinauer

Owner: H A REINAUER INC, STATEN ISLAND, NY. More information available from US FCC via Universal Licensing System and Coast Guard Vessel Documentation Center.

Last reported at 2017-May-25 01:58 UTC. Time now 2017-May-25 18:00 UTC.
Position N 40°33' W 074°14'.

Length 167 m; draft 6.4 m.

Type: Tanker. MMSI: 366774330.

Date/timePositionNaut miles runAvg speedWind from/ knotsBaromVisibWave heightAir tempDewpointWater temp
2017-May-25 01:58N 40°33' W 074°14'1 2.0
2017-May-25 01:30N 40°33' W 074°13'3 6.4
2017-May-25 01:00N 40°37' W 074°12'3 5.9
2017-May-25 00:31N 40°39' W 074°10'2 0.3
2017-May-24 18:30N 40°38' W 074°08'0 0.0
2017-May-24 18:00N 40°38' W 074°08'0 0.5
2017-May-24 17:30N 40°39' W 074°07'2 4.7
2017-May-24 17:00N 40°39' W 074°04'3 5.0
2017-May-24 16:30N 40°37' W 074°03'0 0.7
2017-May-24 16:00N 40°37' W 074°03'1 1.3
2017-May-24 15:30N 40°36' W 074°02'1 1.5
2017-May-24 15:00N 40°35' W 074°02'2 4.9
2017-May-24 14:30N 40°37' W 074°03'7 7.2
2017-May-24 13:30N 40°44' W 074°01'5 9.8
2017-May-24 13:00N 40°49' W 073°58'5 9.3
2017-May-24 12:30N 40°53' W 073°56'5 0.1
2017-May-22 13:47N 40°58' W 073°54'310.9
2017-May-22 13:29N 40°55' W 073°55'511.1
2017-May-22 13:00N 40°50' W 073°58'611.5
2017-May-22 12:30N 40°45' W 074°01'611.3
2017-May-22 12:00N 40°39' W 074°03'5 9.8
2017-May-22 11:30N 40°39' W 074°10'3 6.1
2017-May-22 11:00N 40°36' W 074°12'1 1.7
2017-May-22 10:30N 40°35' W 074°12'0 0.0
2017-May-21 17:04N 40°35' W 074°12'0 0.0
2017-May-21 16:58N 40°35' W 074°12'0 0.0
2017-May-21 06:34N 40°35' W 074°12'0 0.0
2017-May-21 06:29N 40°35' W 074°12'0 0.0
2017-May-21 06:00N 40°35' W 074°12'0 0.0
2017-May-21 05:30N 40°35' W 074°12'0 0.0
2017-May-21 05:00N 40°35' W 074°12'0 0.0
2017-May-21 04:30N 40°35' W 074°12'0 0.0
2017-May-21 04:00N 40°35' W 074°12'0 0.0
2017-May-21 03:30N 40°35' W 074°12'0 0.0
2017-May-21 03:00N 40°35' W 074°12'0 0.0
2017-May-21 02:30N 40°35' W 074°12'0 0.0
2017-May-21 02:00N 40°35' W 074°12'0 0.0
2017-May-21 01:30N 40°35' W 074°12'0 0.0
2017-May-21 01:00N 40°35' W 074°12'0 0.0
2017-May-21 00:30N 40°35' W 074°12'0 0.0
2017-May-21 00:00N 40°35' W 074°12'0 0.0
2017-May-20 23:30N 40°35' W 074°12'0 0.0
2017-May-20 23:00N 40°35' W 074°12'0 0.0
2017-May-20 22:30N 40°35' W 074°12'0 0.0
2017-May-20 22:00N 40°35' W 074°12'0 0.0
2017-May-20 21:30N 40°35' W 074°12'0 0.0
2017-May-20 21:00N 40°35' W 074°12'0 0.0
2017-May-20 20:30N 40°35' W 074°12'0 0.0
2017-May-20 20:00N 40°35' W 074°12'0 0.0
2017-May-20 19:30N 40°35' W 074°12'0 0.0
2017-May-20 19:00N 40°35' W 074°12'0 0.0
2017-May-20 18:30N 40°35' W 074°12'0 0.0
2017-May-20 18:00N 40°35' W 074°12'1 2.1
2017-May-20 17:30N 40°37' W 074°12'3 6.5
2017-May-20 17:00N 40°39' W 074°09'4 8.9
2017-May-20 16:30N 40°39' W 074°03'612.4
2017-May-20 16:00N 40°45' W 074°01'713.1
2017-May-20 15:30N 40°51' W 073°57'713.0
2017-May-20 15:00N 40°57' W 073°54'  
2017-May-18 00:00N 40°59' W 073°54'510.3
2017-May-17 23:30N 40°54' W 073°55'510.0
2017-May-17 23:01N 40°49' W 073°58'510.2
2017-May-17 22:30N 40°45' W 074°01'510.5
2017-May-17 22:00N 40°40' W 074°03'5 9.1
2017-May-17 21:30N 40°39' W 074°09'3 6.5
2017-May-17 21:00N 40°36' W 074°12'4 0.2
2017-May-17 00:54N 40°33' W 074°15'3 5.9
2017-May-17 00:28N 40°34' W 074°13'5 9.9
2017-May-17 00:00N 40°39' W 074°10'2 4.2
2017-May-16 23:30N 40°38' W 074°08'0 0.0
2017-May-16 23:00N 40°38' W 074°08'3 5.7
2017-May-16 22:30N 40°38' W 074°11'4 8.7
2017-May-16 22:00N 40°34' W 074°13'2 0.1
2017-May-15 23:47N 40°33' W 074°15'2 8.3
2017-May-15 23:29N 40°34' W 074°13'4 8.4
2017-May-15 23:00N 40°38' W 074°12'3 3.2
2017-May-15 22:04N 40°39' W 074°08'0 0.4
2017-May-15 21:58N 40°38' W 074°08'0 0.0
2017-May-15 21:10N 40°38' W 074°08'0 0.0
2017-May-15 20:49N 40°38' W 074°08'0 0.0
2017-May-15 20:25N 40°38' W 074°08'0 0.0
2017-May-15 19:04N 40°38' W 074°08'0 0.0
2017-May-15 18:37N 40°38' W 074°08'0 0.0
2017-May-15 16:40N 40°38' W 074°08'0 0.0
2017-May-15 16:28N 40°38' W 074°08'0 0.0
2017-May-15 15:58N 40°38' W 074°08'0 0.0
2017-May-15 15:07N 40°38' W 074°08'0 0.0
2017-May-15 14:46N 40°38' W 074°08'0 0.0
2017-May-15 14:25N 40°38' W 074°08'0 0.0
2017-May-15 13:19N 40°38' W 074°08'0 0.0
2017-May-15 12:55N 40°38' W 074°08'0 0.0
2017-May-15 12:28N 40°38' W 074°08'0 0.0
2017-May-15 11:55N 40°38' W 074°08'0 0.0
2017-May-15 11:28N 40°38' W 074°08'0 0.0
2017-May-15 10:58N 40°38' W 074°08'0 0.0
2017-May-15 10:19N 40°38' W 074°08'0 0.0
2017-May-15 09:58N 40°38' W 074°08'0 0.0
2017-May-15 09:19N 40°38' W 074°08'0 0.0
2017-May-15 08:58N 40°38' W 074°08'0 0.0
2017-May-15 08:28N 40°38' W 074°08'0 0.0
2017-May-15 07:55N 40°38' W 074°08'0 0.0
2017-May-15 07:28N 40°38' W 074°08'0 0.0
2017-May-15 06:58N 40°38' W 074°08'0 0.0
2017-May-15 06:25N 40°38' W 074°08'0 0.0
2017-May-15 05:49N 40°38' W 074°08'0 0.0
2017-May-15 05:25N 40°38' W 074°08'0 0.0
2017-May-15 04:55N 40°38' W 074°08'0 0.0
2017-May-15 04:19N 40°38' W 074°08'0 0.0
2017-May-15 03:55N 40°38' W 074°08'0 0.0
2017-May-15 03:28N 40°38' W 074°08'0 0.0
2017-May-15 02:58N 40°38' W 074°08'0 0.0
2017-May-15 02:28N 40°38' W 074°08'  
Track history (hours):
 
Tides and Currents Weather Stations Pressure Air Temp Water Temp Dewpoint Dewpoint Depression Visibility Wind Speed Wind Dir Waves Ship Positions

Nicole Leigh Reinauer

Owner: H A REINAUER INC, STATEN ISLAND, NY. More information available from US FCC via Universal Licensing System and Coast Guard Vessel Documentation Center.

Last reported at 2017-May-25 01:58 UTC. Time now 2017-May-25 18:00 UTC.
Position N 40°33' W 074°14'.

Length 167 m; draft 6.4 m.

Type: Tanker. MMSI: 366774330.

Date/timePositionNaut miles runAvg speedWind from/ knotsBaromVisibWave heightAir tempDewpointWater temp
2017-May-25 01:58N 40°33' W 074°14'1 2.0
2017-May-25 01:30N 40°33' W 074°13'3 6.4
2017-May-25 01:00N 40°37' W 074°12'3 5.9
2017-May-25 00:31N 40°39' W 074°10'2 0.3
2017-May-24 18:30N 40°38' W 074°08'0 0.0
2017-May-24 18:00N 40°38' W 074°08'0 0.5
2017-May-24 17:30N 40°39' W 074°07'2 4.7
2017-May-24 17:00N 40°39' W 074°04'3 5.0
2017-May-24 16:30N 40°37' W 074°03'0 0.7
2017-May-24 16:00N 40°37' W 074°03'1 1.3
2017-May-24 15:30N 40°36' W 074°02'1 1.5
2017-May-24 15:00N 40°35' W 074°02'2 4.9
2017-May-24 14:30N 40°37' W 074°03'7 7.2
2017-May-24 13:30N 40°44' W 074°01'5 9.8
2017-May-24 13:00N 40°49' W 073°58'5 9.3
2017-May-24 12:30N 40°53' W 073°56'5 0.1
2017-May-22 13:47N 40°58' W 073°54'310.9
2017-May-22 13:29N 40°55' W 073°55'511.1
2017-May-22 13:00N 40°50' W 073°58'611.5
2017-May-22 12:30N 40°45' W 074°01'611.3
2017-May-22 12:00N 40°39' W 074°03'5 9.8
2017-May-22 11:30N 40°39' W 074°10'3 6.1
2017-May-22 11:00N 40°36' W 074°12'1 1.7
2017-May-22 10:30N 40°35' W 074°12'0 0.0
2017-May-21 17:04N 40°35' W 074°12'0 0.0
2017-May-21 16:58N 40°35' W 074°12'0 0.0
2017-May-21 06:34N 40°35' W 074°12'0 0.0
2017-May-21 06:29N 40°35' W 074°12'0 0.0
2017-May-21 06:00N 40°35' W 074°12'0 0.0
2017-May-21 05:30N 40°35' W 074°12'0 0.0
2017-May-21 05:00N 40°35' W 074°12'0 0.0
2017-May-21 04:30N 40°35' W 074°12'0 0.0
2017-May-21 04:00N 40°35' W 074°12'0 0.0
2017-May-21 03:30N 40°35' W 074°12'0 0.0
2017-May-21 03:00N 40°35' W 074°12'0 0.0
2017-May-21 02:30N 40°35' W 074°12'0 0.0
2017-May-21 02:00N 40°35' W 074°12'0 0.0
2017-May-21 01:30N 40°35' W 074°12'0 0.0
2017-May-21 01:00N 40°35' W 074°12'0 0.0
2017-May-21 00:30N 40°35' W 074°12'0 0.0
2017-May-21 00:00N 40°35' W 074°12'0 0.0
2017-May-20 23:30N 40°35' W 074°12'0 0.0
2017-May-20 23:00N 40°35' W 074°12'0 0.0
2017-May-20 22:30N 40°35' W 074°12'0 0.0
2017-May-20 22:00N 40°35' W 074°12'0 0.0
2017-May-20 21:30N 40°35' W 074°12'0 0.0
2017-May-20 21:00N 40°35' W 074°12'0 0.0
2017-May-20 20:30N 40°35' W 074°12'0 0.0
2017-May-20 20:00N 40°35' W 074°12'0 0.0
2017-May-20 19:30N 40°35' W 074°12'0 0.0
2017-May-20 19:00N 40°35' W 074°12'0 0.0
2017-May-20 18:30N 40°35' W 074°12'0 0.0
2017-May-20 18:00N 40°35' W 074°12'1 2.1
2017-May-20 17:30N 40°37' W 074°12'3 6.5
2017-May-20 17:00N 40°39' W 074°09'4 8.9
2017-May-20 16:30N 40°39' W 074°03'612.4
2017-May-20 16:00N 40°45' W 074°01'713.1
2017-May-20 15:30N 40°51' W 073°57'713.0
2017-May-20 15:00N 40°57' W 073°54'  
2017-May-18 00:00N 40°59' W 073°54'510.3
2017-May-17 23:30N 40°54' W 073°55'510.0
2017-May-17 23:01N 40°49' W 073°58'510.2
2017-May-17 22:30N 40°45' W 074°01'510.5
2017-May-17 22:00N 40°40' W 074°03'5 9.1
2017-May-17 21:30N 40°39' W 074°09'3 6.5
2017-May-17 21:00N 40°36' W 074°12'4 0.2
2017-May-17 00:54N 40°33' W 074°15'3 5.9
2017-May-17 00:28N 40°34' W 074°13'5 9.9
2017-May-17 00:00N 40°39' W 074°10'2 4.2
2017-May-16 23:30N 40°38' W 074°08'0 0.0
2017-May-16 23:00N 40°38' W 074°08'3 5.7
2017-May-16 22:30N 40°38' W 074°11'4 8.7
2017-May-16 22:00N 40°34' W 074°13'2 0.1
2017-May-15 23:47N 40°33' W 074°15'2 8.3
2017-May-15 23:29N 40°34' W 074°13'4 8.4
2017-May-15 23:00N 40°38' W 074°12'3 3.2
2017-May-15 22:04N 40°39' W 074°08'0 0.4
2017-May-15 21:58N 40°38' W 074°08'0 0.0
2017-May-15 21:10N 40°38' W 074°08'0 0.0
2017-May-15 20:49N 40°38' W 074°08'0 0.0
2017-May-15 20:25N 40°38' W 074°08'0 0.0
2017-May-15 19:04N 40°38' W 074°08'0 0.0
2017-May-15 18:37N 40°38' W 074°08'0 0.0
2017-May-15 16:40N 40°38' W 074°08'0 0.0
2017-May-15 16:28N 40°38' W 074°08'0 0.0
2017-May-15 15:58N 40°38' W 074°08'0 0.0
2017-May-15 15:07N 40°38' W 074°08'0 0.0
2017-May-15 14:46N 40°38' W 074°08'0 0.0
2017-May-15 14:25N 40°38' W 074°08'0 0.0
2017-May-15 13:19N 40°38' W 074°08'0 0.0
2017-May-15 12:55N 40°38' W 074°08'0 0.0
2017-May-15 12:28N 40°38' W 074°08'0 0.0
2017-May-15 11:55N 40°38' W 074°08'0 0.0
2017-May-15 11:28N 40°38' W 074°08'0 0.0
2017-May-15 10:58N 40°38' W 074°08'0 0.0
2017-May-15 10:19N 40°38' W 074°08'0 0.0
2017-May-15 09:58N 40°38' W 074°08'0 0.0
2017-May-15 09:19N 40°38' W 074°08'0 0.0
2017-May-15 08:58N 40°38' W 074°08'0 0.0
2017-May-15 08:28N 40°38' W 074°08'0 0.0
2017-May-15 07:55N 40°38' W 074°08'0 0.0
2017-May-15 07:28N 40°38' W 074°08'0 0.0
2017-May-15 06:58N 40°38' W 074°08'0 0.0
2017-May-15 06:25N 40°38' W 074°08'0 0.0
2017-May-15 05:49N 40°38' W 074°08'0 0.0
2017-May-15 05:25N 40°38' W 074°08'0 0.0
2017-May-15 04:55N 40°38' W 074°08'0 0.0
2017-May-15 04:19N 40°38' W 074°08'0 0.0
2017-May-15 03:55N 40°38' W 074°08'0 0.0
2017-May-15 03:28N 40°38' W 074°08'0 0.0
2017-May-15 02:58N 40°38' W 074°08'0 0.0
2017-May-15 02:28N 40°38' W 074°08'  

Dump ship's entire track history